Time;durP1;ratioP1;P1;durP2;ratioP2;P2;SDS_P1;SDS_P2;PMS_P1;PMS_P2;Temp;Humidity;BMP_temperature;BMP_pressure;BME280_temperature;BME280_humidity;BME280_pressure;Samples;Min_cycle;Max_cycle;Signal;HPM_P1;HPM_P2
2021/11/21 00:01:20;;;;;;;1999.90;999.90;;;;;;;;;;4989773;28;20033;-91
2021/11/21 00:03:49;;;;;;;1999.90;999.90;;;;;;;;;;4990377;28;20046;-91
2021/11/21 00:06:16;;;;;;;1999.90;999.90;;;;;;;;;;5014902;28;20399;-91
2021/11/21 00:08:45;;;;;;;1999.90;999.90;;;;;;;;;;4998109;28;20080;-91
2021/11/21 00:11:11;;;;;;;1999.90;999.90;;;;;;;;;;4998589;28;20120;-91
2021/11/21 00:13:36;;;;;;;1999.90;999.90;;;;;;;;;;4998129;28;20041;-91
2021/11/21 00:16:04;;;;;;;1999.90;999.90;;;;;;;;;;4998803;28;20033;-91
2021/11/21 00:18:30;;;;;;;1999.90;999.90;;;;;;;;;;5017659;28;20412;-91
2021/11/21 00:20:55;;;;;;;1999.90;999.90;;;;;;;;;;4986443;28;20021;-92
2021/11/21 00:23:22;;;;;;;1999.90;999.90;;;;;;;;;;5002047;28;20045;-92
2021/11/21 00:25:48;;;;;;;1999.90;999.90;;;;;;;;;;4986068;28;20041;-91
2021/11/21 00:28:20;;;;;;;1999.90;999.90;;;;;;;;;;5001885;28;20079;-92
2021/11/21 00:30:48;;;;;;;1999.90;999.90;;;;;;;;;;4981095;28;20041;-91
2021/11/21 00:33:15;;;;;;;1999.90;999.90;;;;;;;;;;5001268;28;20076;-91
2021/11/21 00:35:40;;;;;;;1999.90;999.90;;;;;;;;;;5001145;28;20041;-91
2021/11/21 00:38:07;;;;;;;1999.90;999.90;;;;;;;;;;4985706;28;20041;-91
2021/11/21 00:40:36;;;;;;;1999.90;999.90;;;;;;;;;;4985692;28;20037;-92
2021/11/21 00:43:01;;;;;;;1999.90;999.90;;;;;;;;;;4985520;28;20099;-92
2021/11/21 00:45:29;;;;;;;1999.90;999.90;;;;;;;;;;4985414;28;20120;-91
2021/11/21 00:47:55;;;;;;;1999.90;999.90;;;;;;;;;;4985245;28;20029;-91
2021/11/21 00:50:29;;;;;;;1999.90;999.90;;;;;;;;;;4985279;28;20034;-91
2021/11/21 00:53:04;;;;;;;1999.90;999.90;;;;;;;;;;5002433;28;20068;-91
2021/11/21 00:58:04;;;;;;;1999.90;999.90;;;;;;;;;;5037419;28;20068;-91
2021/11/21 01:00:33;;;;;;;1999.90;999.90;;;;;;;;;;5000208;28;20026;-92
2021/11/21 01:03:01;;;;;;;1999.90;999.90;;;;;;;;;;5000996;28;20076;-91
2021/11/21 01:05:27;;;;;;;1999.90;999.90;;;;;;;;;;4997965;28;20045;-91
2021/11/21 01:07:55;;;;;;;1999.90;999.90;;;;;;;;;;5001020;28;20034;-91
2021/11/21 01:10:22;;;;;;;1999.90;999.90;;;;;;;;;;5000842;28;20087;-91
2021/11/21 01:12:54;;;;;;;1999.90;999.90;;;;;;;;;;5017729;28;20037;-92
2021/11/21 01:15:23;;;;;;;1999.90;999.90;;;;;;;;;;5018685;28;20033;-90
2021/11/21 01:17:52;;;;;;;1999.90;999.90;;;;;;;;;;5004858;28;20072;-91
2021/11/21 01:20:18;;;;;;;1999.90;999.90;;;;;;;;;;5020722;28;20123;-92
2021/11/21 01:22:45;;;;;;;1999.90;999.90;;;;;;;;;;5004511;28;20029;-92
2021/11/21 01:25:12;;;;;;;1999.90;999.90;;;;;;;;;;5004606;28;20418;-91
2021/11/21 01:27:40;;;;;;;1999.90;999.90;;;;;;;;;;4999108;28;20037;-90
2021/11/21 01:30:08;;;;;;;1999.90;999.90;;;;;;;;;;4983676;28;20034;-88
2021/11/21 01:32:34;;;;;;;1999.90;999.90;;;;;;;;;;5017025;28;20164;-89
2021/11/21 01:35:02;;;;;;;1999.90;999.90;;;;;;;;;;5017129;28;20037;-90
2021/11/21 01:37:28;;;;;;;1999.90;999.90;;;;;;;;;;4984141;28;20037;-89
2021/11/21 01:39:53;;;;;;;1999.90;999.90;;;;;;;;;;5000556;28;20041;-91
2021/11/21 01:42:22;;;;;;;1999.90;999.90;;;;;;;;;;5000372;28;20033;-90
2021/11/21 01:44:48;;;;;;;1999.90;999.90;;;;;;;;;;4984835;28;20034;-90
2021/11/21 01:47:15;;;;;;;1999.90;999.90;;;;;;;;;;4983800;28;20041;-90
2021/11/21 01:49:43;;;;;;;1999.90;999.90;;;;;;;;;;4983998;28;20034;-89
2021/11/21 01:52:09;;;;;;;1999.90;999.90;;;;;;;;;;4988158;28;20037;-89
2021/11/21 01:54:34;;;;;;;1999.90;999.90;;;;;;;;;;5003379;28;20040;-89
2021/11/21 01:57:03;;;;;;;1999.90;999.90;;;;;;;;;;5003246;28;20475;-90
2021/11/21 01:59:30;;;;;;;1999.90;999.90;;;;;;;;;;4997056;28;20116;-88
2021/11/21 02:01:57;;;;;;;1999.90;999.90;;;;;;;;;;4999706;28;20041;-91
2021/11/21 02:04:23;;;;;;;1999.90;999.90;;;;;;;;;;5016131;28;20036;-89
2021/11/21 02:06:48;;;;;;;1999.90;999.90;;;;;;;;;;5015770;28;20045;-89
2021/11/21 02:09:16;;;;;;;1999.90;999.90;;;;;;;;;;4983450;28;20029;-89
2021/11/21 02:11:41;;;;;;;1999.90;999.90;;;;;;;;;;4983463;28;20043;-88
2021/11/21 02:14:08;;;;;;;1999.90;999.90;;;;;;;;;;4983439;28;20120;-89
2021/11/21 02:16:34;;;;;;;1999.90;999.90;;;;;;;;;;5016062;28;20037;-89
2021/11/21 02:19:00;;;;;;;1999.90;999.90;;;;;;;;;;4999734;28;20026;-90
2021/11/21 02:21:27;;;;;;;1999.90;999.90;;;;;;;;;;5015603;28;20060;-89
2021/11/21 02:23:52;;;;;;;1999.90;999.90;;;;;;;;;;4983628;28;20033;-89
2021/11/21 02:26:19;;;;;;;1999.90;999.90;;;;;;;;;;5016035;28;20044;-89
2021/11/21 02:28:49;;;;;;;1999.90;999.90;;;;;;;;;;5016020;28;20021;-89
2021/11/21 02:31:16;;;;;;;1999.90;999.90;;;;;;;;;;4999644;28;20069;-89
2021/11/21 02:33:42;;;;;;;1999.90;999.90;;;;;;;;;;4998215;28;20045;-88
2021/11/21 02:36:08;;;;;;;1999.90;999.90;;;;;;;;;;5015318;28;20045;-89
2021/11/21 02:38:34;;;;;;;1999.90;999.90;;;;;;;;;;5015594;28;20096;-89
2021/11/21 02:41:06;;;;;;;1999.90;999.90;;;;;;;;;;4982235;28;20507;-89
2021/11/21 02:43:34;;;;;;;1999.90;999.90;;;;;;;;;;4983222;28;20037;-89
2021/11/21 02:46:01;;;;;;;1999.90;999.90;;;;;;;;;;4983185;28;20051;-89
2021/11/21 02:48:29;;;;;;;1999.90;999.90;;;;;;;;;;5028021;28;20033;-90
2021/11/21 02:50:56;;;;;;;1999.90;999.90;;;;;;;;;;5002979;28;20043;-90
2021/11/21 02:53:25;;;;;;;1999.90;999.90;;;;;;;;;;5003073;28;20064;-91
2021/11/21 02:55:58;;;;;;;1999.90;999.90;;;;;;;;;;5003252;28;20037;-91
2021/11/21 02:58:25;;;;;;;1999.90;999.90;;;;;;;;;;5008594;28;20038;-92
2021/11/21 03:00:52;;;;;;;1999.90;999.90;;;;;;;;;;5015138;28;20033;-92
2021/11/21 03:03:19;;;;;;;1999.90;999.90;;;;;;;;;;5015051;28;20029;-91
2021/11/21 03:05:49;;;;;;;1999.90;999.90;;;;;;;;;;4982966;28;20045;-92
2021/11/21 03:08:16;;;;;;;1999.90;999.90;;;;;;;;;;5002441;28;20532;-92
2021/11/21 03:10:42;;;;;;;1999.90;999.90;;;;;;;;;;4979511;28;20189;-90
2021/11/21 03:13:11;;;;;;;1999.90;999.90;;;;;;;;;;4979548;28;20067;-92
2021/11/21 03:15:37;;;;;;;1999.90;999.90;;;;;;;;;;4979991;28;20049;-92
2021/11/21 03:18:03;;;;;;;1999.90;999.90;;;;;;;;;;4982313;28;20025;-92
2021/11/21 03:20:30;;;;;;;1999.90;999.90;;;;;;;;;;5015430;28;20038;-92
2021/11/21 03:22:59;;;;;;;1999.90;999.90;;;;;;;;;;4999161;28;20029;-92
2021/11/21 03:25:25;;;;;;;1999.90;999.90;;;;;;;;;;4998924;28;20096;-92
2021/11/21 03:27:52;;;;;;;1999.90;999.90;;;;;;;;;;4998761;28;20025;-92
2021/11/21 03:30:24;;;;;;;1999.90;999.90;;;;;;;;;;4982916;28;20038;-91
2021/11/21 03:32:52;;;;;;;1999.90;999.90;;;;;;;;;;4982535;28;20553;-91
2021/11/21 03:35:20;;;;;;;1999.90;999.90;;;;;;;;;;5015188;28;20041;-91
2021/11/21 03:37:48;;;;;;;1999.90;999.90;;;;;;;;;;4982992;28;20026;-90
2021/11/21 03:40:15;;;;;;;1999.90;999.90;;;;;;;;;;5015142;28;20542;-91
2021/11/21 03:42:40;;;;;;;1999.90;999.90;;;;;;;;;;4982480;28;20040;-91
2021/11/21 03:45:08;;;;;;;1999.90;999.90;;;;;;;;;;5015088;28;20045;-91
2021/11/21 03:47:37;;;;;;;1999.90;999.90;;;;;;;;;;4981911;28;20124;-91
2021/11/21 03:50:05;;;;;;;1999.90;999.90;;;;;;;;;;5015304;28;20037;-91
2021/11/21 03:52:33;;;;;;;1999.90;999.90;;;;;;;;;;5016544;28;20088;-91
2021/11/21 03:55:00;;;;;;;1999.90;999.90;;;;;;;;;;5019050;28;20090;-91
2021/11/21 03:57:28;;;;;;;1999.90;999.90;;;;;;;;;;5018619;28;20036;-92
2021/11/21 04:00:05;;;;;;;1999.90;999.90;;;;;;;;;;4986219;28;20033;-91
2021/11/21 04:02:31;;;;;;;1999.90;999.90;;;;;;;;;;5043198;28;20068;-91
2021/11/21 04:04:58;;;;;;;1999.90;999.90;;;;;;;;;;5005919;28;20049;-91
2021/11/21 04:07:25;;;;;;;1999.90;999.90;;;;;;;;;;5020853;28;20037;-91
2021/11/21 04:09:51;;;;;;;1999.90;999.90;;;;;;;;;;4982889;28;20038;-91
2021/11/21 04:12:16;;;;;;;1999.90;999.90;;;;;;;;;;4999131;28;20041;-91
2021/11/21 04:14:43;;;;;;;1999.90;999.90;;;;;;;;;;4999023;28;20125;-91
2021/11/21 04:17:11;;;;;;;1999.90;999.90;;;;;;;;;;4998781;28;20036;-91
2021/11/21 04:19:40;;;;;;;1999.90;999.90;;;;;;;;;;4998859;28;20132;-91
2021/11/21 04:22:08;;;;;;;1999.90;999.90;;;;;;;;;;5021796;28;20044;-90
2021/11/21 04:24:37;;;;;;;1999.90;999.90;;;;;;;;;;5014783;28;20041;-90
2021/11/21 04:27:04;;;;;;;1999.90;999.90;;;;;;;;;;5002292;28;20041;-90
2021/11/21 04:29:33;;;;;;;1999.90;999.90;;;;;;;;;;5001662;28;20045;-90
2021/11/21 04:32:02;;;;;;;1999.90;999.90;;;;;;;;;;5001097;28;20042;-91
2021/11/21 04:34:28;;;;;;;1999.90;999.90;;;;;;;;;;5018103;28;20033;-90
2021/11/21 04:37:11;;;;;;;1999.90;999.90;;;;;;;;;;5018152;28;20040;-91
2021/11/21 04:39:36;;;;;;;1999.90;999.90;;;;;;;;;;5018091;28;20037;-90
2021/11/21 04:42:03;;;;;;;1999.90;999.90;;;;;;;;;;4985808;28;20040;-90
2021/11/21 04:44:28;;;;;;;1999.90;999.90;;;;;;;;;;5001138;28;20030;-89
2021/11/21 04:46:54;;;;;;;1999.90;999.90;;;;;;;;;;4985226;28;20044;-90
2021/11/21 04:49:23;;;;;;;1999.90;999.90;;;;;;;;;;4985592;28;20045;-91
2021/11/21 04:51:48;;;;;;;1999.90;999.90;;;;;;;;;;4985301;28;20037;-91
2021/11/21 04:54:18;;;;;;;1999.90;999.90;;;;;;;;;;4989921;28;20029;-91
2021/11/21 04:56:46;;;;;;;1999.90;999.90;;;;;;;;;;5005793;28;20028;-90
2021/11/21 04:59:12;;;;;;;1999.90;999.90;;;;;;;;;;5004545;28;20041;-91
2021/11/21 05:01:38;;;;;;;1999.90;999.90;;;;;;;;;;4984351;28;20034;-90
2021/11/21 05:04:03;;;;;;;1999.90;999.90;;;;;;;;;;4999633;28;20060;-91
2021/11/21 05:06:29;;;;;;;1999.90;999.90;;;;;;;;;;5000897;28;20060;-91
2021/11/21 05:08:54;;;;;;;1999.90;999.90;;;;;;;;;;5020657;28;20041;-91
2021/11/21 05:11:22;;;;;;;1999.90;999.90;;;;;;;;;;5001066;28;20033;-91
2021/11/21 05:13:50;;;;;;;1999.90;999.90;;;;;;;;;;5000597;28;20037;-91
2021/11/21 05:16:17;;;;;;;1999.90;999.90;;;;;;;;;;5001368;28;20037;-89
2021/11/21 05:18:44;;;;;;;1999.90;999.90;;;;;;;;;;5001111;28;20042;-91
2021/11/21 05:21:12;;;;;;;1999.90;999.90;;;;;;;;;;4984520;28;20072;-90
2021/11/21 05:23:37;;;;;;;1999.90;999.90;;;;;;;;;;5017516;28;20038;-91
2021/11/21 05:26:04;;;;;;;1999.90;999.90;;;;;;;;;;4985243;28;20083;-91
2021/11/21 05:28:29;;;;;;;1999.90;999.90;;;;;;;;;;4983966;28;20037;-90
2021/11/21 05:30:56;;;;;;;1999.90;999.90;;;;;;;;;;4984550;28;20116;-91
2021/11/21 05:33:22;;;;;;;1999.90;999.90;;;;;;;;;;4984580;28;20065;-90
2021/11/21 05:35:50;;;;;;;1999.90;999.90;;;;;;;;;;5017260;28;20076;-90
2021/11/21 05:38:18;;;;;;;1999.90;999.90;;;;;;;;;;4984657;28;20034;-91
2021/11/21 05:40:47;;;;;;;1999.90;999.90;;;;;;;;;;4984442;28;20048;-91
2021/11/21 05:43:13;;;;;;;1999.90;999.90;;;;;;;;;;5016431;28;20037;-90
2021/11/21 05:45:41;;;;;;;1999.90;999.90;;;;;;;;;;4984733;28;20051;-91
2021/11/21 05:48:10;;;;;;;1999.90;999.90;;;;;;;;;;5000253;28;20500;-91
2021/11/21 05:50:48;;;;;;;1999.90;999.90;;;;;;;;;;5016880;28;20037;-91
2021/11/21 05:53:17;;;;;;;1999.90;999.90;;;;;;;;;;5016584;28;20041;-92
2021/11/21 05:55:46;;;;;;;1999.90;999.90;;;;;;;;;;5000767;28;20440;-92
2021/11/21 05:58:13;;;;;;;1999.90;999.90;;;;;;;;;;5000125;28;20037;-92
2021/11/21 06:00:41;;;;;;;1999.90;999.90;;;;;;;;;;5016593;28;20033;-92
2021/11/21 06:03:08;;;;;;;1999.90;999.90;;;;;;;;;;4983919;28;20542;-93
2021/11/21 06:05:37;;;;;;;1999.90;999.90;;;;;;;;;;4984155;28;20416;-92
2021/11/21 06:08:06;;;;;;;1999.90;999.90;;;;;;;;;;4984004;28;20037;-92
2021/11/21 06:10:34;;;;;;;1999.90;999.90;;;;;;;;;;4984613;28;20045;-93
2021/11/21 06:13:02;;;;;;;1999.90;999.90;;;;;;;;;;4983472;28;20404;-91
2021/11/21 06:15:31;;;;;;;1999.90;999.90;;;;;;;;;;4999822;28;20033;-92
2021/11/21 06:18:03;;;;;;;1999.90;999.90;;;;;;;;;;4997594;28;20038;-92
2021/11/21 06:20:29;;;;;;;1999.90;999.90;;;;;;;;;;5016527;28;20029;-92
2021/11/21 06:22:56;;;;;;;1999.90;999.90;;;;;;;;;;5000190;28;20041;-92
2021/11/21 06:25:21;;;;;;;1999.90;999.90;;;;;;;;;;5016543;28;20033;-93
2021/11/21 06:27:50;;;;;;;1999.90;999.90;;;;;;;;;;5015742;28;20554;-92
2021/11/21 06:30:19;;;;;;;1999.90;999.90;;;;;;;;;;5016362;28;20485;-92
2021/11/21 06:32:47;;;;;;;1999.90;999.90;;;;;;;;;;5015838;28;20037;-91
2021/11/21 06:35:16;;;;;;;1999.90;999.90;;;;;;;;;;5015935;28;20040;-92
2021/11/21 06:37:45;;;;;;;1999.90;999.90;;;;;;;;;;5015910;28;20124;-92
2021/11/21 06:40:16;;;;;;;1999.90;999.90;;;;;;;;;;4999503;28;20060;-92
2021/11/21 06:42:42;;;;;;;1999.90;999.90;;;;;;;;;;4983468;28;20045;-88
2021/11/21 06:45:10;;;;;;;1999.90;999.90;;;;;;;;;;4983293;28;20042;-88
2021/11/21 06:47:36;;;;;;;1999.90;999.90;;;;;;;;;;4982687;28;20116;-88
2021/11/21 06:50:04;;;;;;;1999.90;999.90;;;;;;;;;;4983034;28;20452;-88
2021/11/21 06:52:33;;;;;;;1999.90;999.90;;;;;;;;;;4982701;28;20399;-88
2021/11/21 06:55:01;;;;;;;1999.90;999.90;;;;;;;;;;4983016;28;20033;-88
2021/11/21 06:57:26;;;;;;;1999.90;999.90;;;;;;;;;;4982476;28;20049;-88
2021/11/21 06:59:54;;;;;;;1999.90;999.90;;;;;;;;;;4982926;28;20033;-88
2021/11/21 07:02:20;;;;;;;1999.90;999.90;;;;;;;;;;5016624;28;20042;-88
2021/11/21 07:04:49;;;;;;;1999.90;999.90;;;;;;;;;;5015127;28;20043;-84
2021/11/21 07:07:15;;;;;;;1999.90;999.90;;;;;;;;;;5021859;28;20043;-85
2021/11/21 07:09:41;;;;;;;1999.90;999.90;;;;;;;;;;5013718;28;20064;-85
2021/11/21 07:12:07;;;;;;;1999.90;999.90;;;;;;;;;;4997987;28;20047;-89
2021/11/21 07:14:33;;;;;;;1999.90;999.90;;;;;;;;;;4982492;28;20503;-87
2021/11/21 07:16:59;;;;;;;1999.90;999.90;;;;;;;;;;5014653;28;20037;-88
2021/11/21 07:19:25;;;;;;;1999.90;999.90;;;;;;;;;;5030009;28;20028;-87
2021/11/21 07:21:51;;;;;;;1999.90;999.90;;;;;;;;;;5001591;28;20064;-88
2021/11/21 07:24:17;;;;;;;1999.90;999.90;;;;;;;;;;5001692;28;20090;-89
2021/11/21 07:26:44;;;;;;;1999.90;999.90;;;;;;;;;;5001506;28;20033;-87
2021/11/21 07:29:11;;;;;;;1999.90;999.90;;;;;;;;;;5002602;28;20415;-89
2021/11/21 07:31:37;;;;;;;1999.90;999.90;;;;;;;;;;5018735;28;20107;-88
2021/11/21 07:34:03;;;;;;;1999.90;999.90;;;;;;;;;;5002660;28;20033;-86
2021/11/21 07:36:30;;;;;;;1999.90;999.90;;;;;;;;;;5019254;28;20034;-88
2021/11/21 07:38:55;;;;;;;1999.90;999.90;;;;;;;;;;5002100;28;20072;-88
2021/11/21 07:41:21;;;;;;;1999.90;999.90;;;;;;;;;;5018308;28;20094;-88
2021/11/21 07:43:47;;;;;;;1999.90;999.90;;;;;;;;;;5018302;28;20120;-88
2021/11/21 07:46:15;;;;;;;1999.90;999.90;;;;;;;;;;5002465;28;20041;-88
2021/11/21 07:48:40;;;;;;;1999.90;999.90;;;;;;;;;;4985591;28;20032;-88
2021/11/21 07:51:06;;;;;;;1999.90;999.90;;;;;;;;;;5018199;28;20053;-86
2021/11/21 07:53:31;;;;;;;1999.90;999.90;;;;;;;;;;4985118;28;20044;-86
2021/11/21 07:55:57;;;;;;;1999.90;999.90;;;;;;;;;;4985549;28;20037;-87
2021/11/21 07:58:23;;;;;;;1999.90;999.90;;;;;;;;;;5018218;28;20033;-86
2021/11/21 08:00:48;;;;;;;1999.90;999.90;;;;;;;;;;5017956;28;20095;-87
2021/11/21 08:03:14;;;;;;;1999.90;999.90;;;;;;;;;;5004830;28;20060;-86
2021/11/21 08:05:40;;;;;;;1999.90;999.90;;;;;;;;;;4997996;28;20040;-86
2021/11/21 08:08:07;;;;;;;1999.90;999.90;;;;;;;;;;4984759;28;20064;-88
2021/11/21 08:10:34;;;;;;;1999.90;999.90;;;;;;;;;;5005672;28;20081;-88
2021/11/21 08:13:00;;;;;;;1999.90;999.90;;;;;;;;;;4981832;28;20065;-86
2021/11/21 08:15:27;;;;;;;1999.90;999.90;;;;;;;;;;4984919;28;20555;-88
2021/11/21 08:17:52;;;;;;;1999.90;999.90;;;;;;;;;;5001866;28;20030;-87
2021/11/21 08:20:20;;;;;;;1999.90;999.90;;;;;;;;;;5004081;28;20044;-87
2021/11/21 08:22:46;;;;;;;1999.90;999.90;;;;;;;;;;5014624;28;20120;-87
2021/11/21 08:25:12;;;;;;;1999.90;999.90;;;;;;;;;;5015471;28;20071;-86
2021/11/21 08:27:39;;;;;;;1999.90;999.90;;;;;;;;;;5016390;28;20033;-86
2021/11/21 08:30:05;;;;;;;1999.90;999.90;;;;;;;;;;5013455;28;20175;-86
2021/11/21 08:32:31;;;;;;;1999.90;999.90;;;;;;;;;;5003740;28;20056;-85
2021/11/21 08:34:56;;;;;;;1999.90;999.90;;;;;;;;;;4990973;28;20126;-86
2021/11/21 08:37:22;;;;;;;1999.90;999.90;;;;;;;;;;5016988;28;20045;-86
2021/11/21 08:39:48;;;;;;;1999.90;999.90;;;;;;;;;;5017509;28;20037;-88
2021/11/21 08:42:15;;;;;;;1999.90;999.90;;;;;;;;;;5017570;28;20629;-87
2021/11/21 08:44:41;;;;;;;1999.90;999.90;;;;;;;;;;5017481;28;20112;-88
2021/11/21 08:47:10;;;;;;;1999.90;999.90;;;;;;;;;;4985093;28;20124;-88
2021/11/21 08:49:37;;;;;;;1999.90;999.90;;;;;;;;;;5017505;28;20049;-88
2021/11/21 08:52:03;;;;;;;1999.90;999.90;;;;;;;;;;4999170;28;20040;-87
2021/11/21 08:54:31;;;;;;;1999.90;999.90;;;;;;;;;;5021267;28;20037;-88
2021/11/21 08:56:57;;;;;;;1999.90;999.90;;;;;;;;;;5002017;28;20041;-89
2021/11/21 08:59:25;;;;;;;1999.90;999.90;;;;;;;;;;5012548;28;20049;-88
2021/11/21 09:01:53;;;;;;;1999.90;999.90;;;;;;;;;;5007060;28;20044;-89
2021/11/21 09:04:19;;;;;;;1999.90;999.90;;;;;;;;;;5001163;28;20040;-88
2021/11/21 09:06:45;;;;;;;1999.90;999.90;;;;;;;;;;5000631;28;20038;-89
2021/11/21 09:09:11;;;;;;;1999.90;999.90;;;;;;;;;;4984384;28;20061;-89
2021/11/21 09:11:37;;;;;;;1999.90;999.90;;;;;;;;;;4997081;28;20050;-88
2021/11/21 09:14:03;;;;;;;1999.90;999.90;;;;;;;;;;4979558;28;20034;-89
2021/11/21 09:16:29;;;;;;;1515.10;752.60;;;;;;;;;;5016766;28;20029;-89
2021/11/21 09:18:55;;;;;;;1999.90;999.90;;;;;;;;;;5004154;28;20029;-89
2021/11/21 09:21:24;;;;;;;1999.90;999.90;;;;;;;;;;5020297;28;20129;-89
2021/11/21 09:23:53;;;;;;;1999.90;999.90;;;;;;;;;;5010542;28;20080;-89
2021/11/21 09:26:20;;;;;;;1999.90;999.90;;;;;;;;;;5000579;28;20045;-88
2021/11/21 09:28:47;;;;;;;1999.90;999.90;;;;;;;;;;5016577;28;20112;-88
2021/11/21 09:31:13;;;;;;;1999.90;999.90;;;;;;;;;;5016176;28;20045;-87
2021/11/21 09:33:38;;;;;;;1999.90;999.90;;;;;;;;;;4994052;28;20037;-88
2021/11/21 09:36:08;;;;;;;1999.90;999.90;;;;;;;;;;5019939;28;20033;-88
2021/11/21 09:38:33;;;;;;;1999.90;999.90;;;;;;;;;;5003402;28;20017;-88
2021/11/21 09:41:00;;;;;;;1999.90;999.90;;;;;;;;;;5019912;28;20103;-88
2021/11/21 09:43:26;;;;;;;1999.90;999.90;;;;;;;;;;5000470;28;20037;-88
2021/11/21 09:45:53;;;;;;;1999.90;999.90;;;;;;;;;;5034115;28;20048;-87
2021/11/21 09:48:20;;;;;;;1999.90;999.90;;;;;;;;;;5000713;28;20041;-88
2021/11/21 09:50:45;;;;;;;1999.90;999.90;;;;;;;;;;4995465;28;20038;-88
2021/11/21 09:53:13;;;;;;;1999.90;999.90;;;;;;;;;;4983599;28;20043;-89
2021/11/21 09:55:41;;;;;;;1999.90;999.90;;;;;;;;;;4990504;28;20038;-88
2021/11/21 09:58:10;;;;;;;1999.90;999.90;;;;;;;;;;4980119;28;20038;-88
2021/11/21 10:00:36;;;;;;;1999.90;999.90;;;;;;;;;;4998480;28;20044;-89
2021/11/21 10:03:06;;;;;;;1999.90;999.90;;;;;;;;;;5026130;28;20847;-89
2021/11/21 10:05:41;;;;;;;1999.90;999.90;;;;;;;;;;5003386;28;20510;-89
2021/11/21 10:08:12;;;;;;;1999.90;999.90;;;;;;;;;;4992348;28;20045;-89
2021/11/21 10:10:48;;;;;;;1999.90;999.90;;;;;;;;;;4983832;28;20068;-89
2021/11/21 10:13:40;;;;;;;1999.90;999.90;;;;;;;;;;4984082;28;20488;-89
2021/11/21 10:16:18;;;;;;;1999.90;999.90;;;;;;;;;;5015330;28;20059;-88
2021/11/21 10:19:06;;;;;;;1999.90;999.90;;;;;;;;;;5016502;28;20117;-88
2021/11/21 10:21:39;;;;;;;1999.90;999.90;;;;;;;;;;5018166;28;20033;-88
2021/11/21 10:24:30;;;;;;;1999.90;999.90;;;;;;;;;;4998724;28;20073;-89
2021/11/21 10:27:16;;;;;;;1999.90;999.90;;;;;;;;;;4996116;28;20125;-88
2021/11/21 10:29:48;;;;;;;1999.90;999.90;;;;;;;;;;4995471;28;20103;-88
2021/11/21 10:32:31;;;;;;;1999.90;999.90;;;;;;;;;;4996048;28;20034;-89
2021/11/21 10:34:58;;;;;;;1999.90;999.90;;;;;;;;;;4999451;28;20033;-89
2021/11/21 10:37:36;;;;;;;1999.90;999.90;;;;;;;;;;5015120;28;20084;-89
2021/11/21 10:40:13;;;;;;;1999.90;999.90;;;;;;;;;;4998012;28;20037;-87
2021/11/21 10:42:39;;;;;;;1999.90;999.90;;;;;;;;;;4998623;28;20091;-86
2021/11/21 10:45:09;;;;;;;1999.90;999.90;;;;;;;;;;4994929;28;20037;-86
2021/11/21 10:47:49;;;;;;;1999.90;999.90;;;;;;;;;;4989734;28;20041;-87
2021/11/21 10:50:27;;;;;;;1999.90;999.90;;;;;;;;;;4982039;28;20045;-86
2021/11/21 10:52:53;;;;;;;1999.90;999.90;;;;;;;;;;5011869;28;20124;-86
2021/11/21 10:55:19;;;;;;;1999.90;999.90;;;;;;;;;;4995433;28;20033;-86
2021/11/21 10:57:45;;;;;;;1999.90;999.90;;;;;;;;;;5014534;28;20087;-85
2021/11/21 11:00:16;;;;;;;1999.90;999.90;;;;;;;;;;4997618;28;20033;-86
2021/11/21 11:02:42;;;;;;;1999.90;999.90;;;;;;;;;;4980837;28;20585;-86
2021/11/21 11:05:09;;;;;;;1999.90;999.90;;;;;;;;;;4975477;28;20110;-85
2021/11/21 11:07:41;;;;;;;1999.90;999.90;;;;;;;;;;4997877;28;20411;-87
2021/11/21 11:10:19;;;;;;;1999.90;999.90;;;;;;;;;;4986893;28;20592;-86
2021/11/21 11:12:52;;;;;;;1999.90;999.90;;;;;;;;;;4982466;28;20034;-85
2021/11/21 11:15:19;;;;;;;1999.90;999.90;;;;;;;;;;4998542;28;20436;-85
2021/11/21 11:17:45;;;;;;;1999.90;999.90;;;;;;;;;;4981240;28;20109;-85
2021/11/21 11:20:13;;;;;;;1999.90;999.90;;;;;;;;;;5000084;28;20120;-85
2021/11/21 11:22:40;;;;;;;1999.90;999.90;;;;;;;;;;4998480;28;20037;-85
2021/11/21 11:25:10;;;;;;;1999.90;999.90;;;;;;;;;;4982029;28;20037;-86
2021/11/21 11:28:13;;;;;;;1999.90;999.90;;;;;;;;;;5014720;28;20458;-86
2021/11/21 11:30:40;;;;;;;1999.90;999.90;;;;;;;;;;5013916;28;20034;-86
2021/11/21 11:33:09;;;;;;;1999.90;999.90;;;;;;;;;;4978333;28;20041;-86
2021/11/21 11:35:39;;;;;;;1999.90;999.90;;;;;;;;;;5014538;28;20053;-86
2021/11/21 11:38:14;;;;;;;1999.90;999.90;;;;;;;;;;4982060;28;20026;-86
2021/11/21 11:40:49;;;;;;;1999.90;999.90;;;;;;;;;;5015276;28;20037;-86
2021/11/21 11:43:23;;;;;;;1999.90;999.90;;;;;;;;;;5014356;28;20038;-86
2021/11/21 11:46:15;;;;;;;1999.90;999.90;;;;;;;;;;5013994;28;20033;-87
2021/11/21 11:48:51;;;;;;;1999.90;999.90;;;;;;;;;;4993561;28;20038;-86
2021/11/21 11:51:28;;;;;;;1999.90;999.90;;;;;;;;;;4978655;28;20057;-87
2021/11/21 11:53:56;;;;;;;1999.90;999.90;;;;;;;;;;4994950;28;20040;-87
2021/11/21 11:56:32;;;;;;;1551.43;754.72;;;;;;;;;;4994724;28;20399;-86
2021/11/21 11:59:08;;;;;;;1999.90;999.90;;;;;;;;;;4994243;28;20045;-86
2021/11/21 12:01:34;;;;;;;1999.90;999.90;;;;;;;;;;4997165;28;20033;-86
2021/11/21 12:04:00;;;;;;;1999.90;999.90;;;;;;;;;;5021542;28;20577;-86
2021/11/21 12:06:51;;;;;;;1999.90;999.90;;;;;;;;;;5013999;28;20025;-86
2021/11/21 12:09:30;;;;;;;1999.90;999.90;;;;;;;;;;4998532;28;20878;-86
2021/11/21 12:12:06;;;;;;;1999.90;999.90;;;;;;;;;;5030677;28;20037;-86
2021/11/21 12:14:40;;;;;;;1999.90;999.90;;;;;;;;;;4999602;28;20030;-87
2021/11/21 12:17:07;;;;;;;1999.90;999.90;;;;;;;;;;5017431;28;20470;-85
2021/11/21 12:19:43;;;;;;;1999.90;999.90;;;;;;;;;;4984591;28;20057;-85
2021/11/21 12:22:24;;;;;;;1101.28;508.05;;;;;;;;;;5001267;28;20069;-86
2021/11/21 12:24:57;;;;;;;1999.90;999.90;;;;;;;;;;5017401;28;20044;-86
2021/11/21 12:27:27;;;;;;;1999.90;999.90;;;;;;;;;;4985363;28;20029;-86
2021/11/21 12:30:24;;;;;;;1999.90;999.90;;;;;;;;;;4984388;28;20041;-86
2021/11/21 12:32:57;;;;;;;1999.90;999.90;;;;;;;;;;4986855;28;20064;-86
2021/11/21 12:35:40;;;;;;;1999.90;999.90;;;;;;;;;;4985732;28;20135;-87
2021/11/21 12:38:22;;;;;;;1999.90;999.90;;;;;;;;;;5001340;28;20072;-86
2021/11/21 12:40:52;;;;;;;1999.90;999.90;;;;;;;;;;5002608;28;20033;-84
2021/11/21 12:43:18;;;;;;;1999.90;999.90;;;;;;;;;;5000149;28;20094;-85
2021/11/21 12:45:59;;;;;;;1999.90;999.90;;;;;;;;;;5000830;28;20037;-87
2021/11/21 12:48:27;;;;;;;1999.90;999.90;;;;;;;;;;5017499;28;20457;-88
2021/11/21 12:51:00;;;;;;;1999.90;999.90;;;;;;;;;;5001426;28;20491;-88
2021/11/21 12:53:39;;;;;;;1999.90;999.90;;;;;;;;;;5018057;28;20030;-88
2021/11/21 12:56:12;;;;;;;1999.90;999.90;;;;;;;;;;5002148;28;20042;-88
2021/11/21 12:58:42;;;;;;;1999.90;999.90;;;;;;;;;;5017353;28;20507;-88
2021/11/21 13:01:12;;;;;;;1999.90;999.90;;;;;;;;;;5000597;28;20172;-88
2021/11/21 13:03:41;;;;;;;1999.90;999.90;;;;;;;;;;5000546;28;20550;-89
2021/11/21 13:06:08;;;;;;;1999.90;999.90;;;;;;;;;;5001352;28;20041;-89
2021/11/21 13:08:43;;;;;;;1999.90;999.90;;;;;;;;;;5017442;28;20069;-90
2021/11/21 13:11:14;;;;;;;1999.90;999.90;;;;;;;;;;5017672;28;20053;-88
2021/11/21 13:13:49;;;;;;;1999.90;999.90;;;;;;;;;;4984392;28;20026;-87
2021/11/21 13:16:27;;;;;;;1999.90;999.90;;;;;;;;;;5001085;28;20132;-87
2021/11/21 13:18:55;;;;;;;1999.90;999.90;;;;;;;;;;4984203;28;20073;-88
2021/11/21 13:21:23;;;;;;;1999.90;999.90;;;;;;;;;;4983656;28;20124;-86
2021/11/21 13:23:49;;;;;;;1999.90;999.90;;;;;;;;;;5019152;28;20034;-86
2021/11/21 13:26:17;;;;;;;1999.90;999.90;;;;;;;;;;4979843;28;20393;-86
2021/11/21 13:28:59;;;;;;;1999.90;999.90;;;;;;;;;;5016013;28;20061;-85
2021/11/21 13:31:25;;;;;;;;;;;;;;;;;;5000049;28;20049;-86
2021/11/21 13:34:04;;;;;;;1999.90;999.90;;;;;;;;;;5015522;28;19925;-85
2021/11/21 13:36:43;;;;;;;1999.90;999.90;;;;;;;;;;4980457;28;20037;-86
2021/11/21 13:39:10;;;;;;;1999.90;999.90;;;;;;;;;;4999377;28;20033;-85
2021/11/21 13:41:36;;;;;;;1999.90;999.90;;;;;;;;;;4995865;28;20090;-85
2021/11/21 13:44:06;;;;;;;1999.90;999.90;;;;;;;;;;4995591;28;20899;-86
2021/11/21 13:46:39;;;;;;;1999.90;999.90;;;;;;;;;;4993579;28;20041;-86
2021/11/21 13:49:24;;;;;;;1999.90;999.90;;;;;;;;;;4997315;28;20033;-85
2021/11/21 13:52:08;;;;;;;1999.90;999.90;;;;;;;;;;5004038;28;20034;-86
2021/11/21 13:54:36;;;;;;;1999.90;999.90;;;;;;;;;;5007704;28;20040;-86